createdAt,value
2023-03-19T00:00:49.265Z,5.80
2023-03-19T00:01:49.323Z,5.60
2023-03-19T00:02:49.383Z,5.60
2023-03-19T00:03:49.359Z,5.90
2023-03-19T00:04:49.363Z,6.20
2023-03-19T00:05:49.342Z,6.10
2023-03-19T00:06:49.366Z,5.90
2023-03-19T00:07:49.389Z,5.80
2023-03-19T00:08:49.412Z,6.10
2023-03-19T00:09:49.415Z,6.20
2023-03-19T00:10:49.434Z,5.90
2023-03-19T00:11:49.442Z,6.10
2023-03-19T00:12:49.468Z,5.70
2023-03-19T00:13:49.485Z,6.40
2023-03-19T00:14:49.506Z,6.20
2023-03-19T00:15:49.537Z,5.40
2023-03-19T00:16:49.663Z,5.60
2023-03-19T00:17:49.544Z,5.60
2023-03-19T00:18:49.565Z,5.90
2023-03-19T00:19:49.585Z,5.40
2023-03-19T00:20:49.599Z,5.60
2023-03-19T00:21:49.609Z,5.50
2023-03-19T00:22:49.624Z,5.50
2023-03-19T00:23:49.650Z,5.70
2023-03-19T00:24:49.669Z,5.30
2023-03-19T00:25:49.686Z,5.80
2023-03-19T00:26:49.706Z,5.70
2023-03-19T00:27:49.715Z,5.70
2023-03-19T00:28:49.735Z,5.40
2023-03-19T00:29:49.746Z,5.50
2023-03-19T00:30:49.807Z,5.60
2023-03-19T00:31:49.795Z,5.40
2023-03-19T00:32:49.852Z,5.40
2023-03-19T00:33:49.816Z,5.30
2023-03-19T00:34:49.829Z,5.30
2023-03-19T00:35:49.900Z,5.60
2023-03-19T00:36:49.873Z,4.90
2023-03-19T00:37:49.872Z,5.60
2023-03-19T00:38:49.888Z,5.40
2023-03-19T00:39:49.924Z,5.40
2023-03-19T00:40:49.937Z,5.30
2023-03-19T00:41:49.939Z,5.20
2023-03-19T00:42:49.972Z,5.20
2023-03-19T00:43:49.979Z,4.90
2023-03-19T00:44:50.002Z,5.20
2023-03-19T00:45:50.081Z,5.00
2023-03-19T00:46:50.030Z,4.90
2023-03-19T00:47:50.076Z,5.20
2023-03-19T00:48:50.057Z,4.90
2023-03-19T00:49:50.073Z,5.20
2023-03-19T00:50:50.095Z,5.10
2023-03-19T00:51:50.105Z,5.10
2023-03-19T00:52:50.121Z,4.70
2023-03-19T00:53:50.143Z,4.80
2023-03-19T00:54:50.161Z,5.00
2023-03-19T00:55:50.170Z,4.70
2023-03-19T00:56:50.213Z,4.80
2023-03-19T00:57:50.213Z,5.10
2023-03-19T00:58:50.225Z,4.70
2023-03-19T00:59:50.247Z,4.90
2023-03-19T01:00:50.267Z,5.10
2023-03-19T01:01:50.277Z,4.70
2023-03-19T01:02:50.305Z,4.60
2023-03-19T01:03:50.331Z,4.80
2023-03-19T01:04:50.396Z,4.80
2023-03-19T01:05:50.344Z,4.70
2023-03-19T01:06:50.362Z,4.80
2023-03-19T01:07:50.363Z,4.60
2023-03-19T01:08:50.387Z,4.60
2023-03-19T01:09:50.399Z,4.60
2023-03-19T01:10:50.413Z,4.90
2023-03-19T01:11:50.436Z,4.40
2023-03-19T01:12:50.443Z,4.20
2023-03-19T01:13:50.467Z,4.30
2023-03-19T01:14:50.483Z,4.70
2023-03-19T01:15:50.493Z,4.30
2023-03-19T01:16:50.513Z,4.50
2023-03-19T01:17:50.535Z,4.60
2023-03-19T01:18:50.543Z,4.60
2023-03-19T01:19:50.587Z,4.20
2023-03-19T01:20:50.582Z,4.00
2023-03-19T01:21:50.604Z,4.40
2023-03-19T01:22:50.608Z,4.50
2023-03-19T01:23:50.634Z,4.60
2023-03-19T01:24:50.649Z,4.20
2023-03-19T01:25:50.682Z,4.40
2023-03-19T01:26:50.690Z,4.30
2023-03-19T01:27:50.697Z,4.40
2023-03-19T01:28:50.707Z,4.40
2023-03-19T01:29:50.726Z,4.50
2023-03-19T01:30:50.796Z,4.10
2023-03-19T01:31:50.757Z,4.20
2023-03-19T01:32:50.829Z,4.10
2023-03-19T01:33:50.803Z,4.20
2023-03-19T01:34:50.812Z,4.10
2023-03-19T01:35:50.904Z,4.10
2023-03-19T01:36:50.871Z,3.80
2023-03-19T01:37:50.859Z,4.10
2023-03-19T01:38:50.871Z,4.10
2023-03-19T01:39:50.894Z,3.80
2023-03-19T01:40:50.911Z,4.10
2023-03-19T01:41:50.927Z,3.80
2023-03-19T01:42:50.937Z,4.00
2023-03-19T01:43:50.954Z,4.30
2023-03-19T01:44:50.977Z,3.80
2023-03-19T01:45:51.503Z,4.10
2023-03-19T01:46:51.082Z,4.20
2023-03-19T01:47:51.024Z,3.80
2023-03-19T01:48:51.090Z,3.80
2023-03-19T01:49:51.058Z,4.00
2023-03-19T01:50:51.065Z,3.80
2023-03-19T01:51:51.103Z,3.70
2023-03-19T01:52:51.108Z,4.10
2023-03-19T01:53:51.120Z,4.20
2023-03-19T01:54:51.164Z,3.80
2023-03-19T01:55:51.161Z,3.70
2023-03-19T01:56:51.176Z,3.70
2023-03-19T01:57:51.193Z,4.20
2023-03-19T01:58:51.212Z,3.40
2023-03-19T01:59:51.213Z,3.60
2023-03-19T02:00:51.229Z,3.60
2023-03-19T02:01:51.325Z,3.50
2023-03-19T02:02:51.264Z,3.60
2023-03-19T02:03:51.293Z,3.40
2023-03-19T02:04:51.475Z,3.80
2023-03-19T02:05:51.311Z,3.50
2023-03-19T02:06:51.353Z,3.70
2023-03-19T02:07:51.372Z,3.60
2023-03-19T02:08:51.381Z,3.50
2023-03-19T02:09:51.385Z,3.70
2023-03-19T02:10:51.401Z,3.60
2023-03-19T02:11:51.410Z,3.60
2023-03-19T02:12:51.444Z,3.60
2023-03-19T02:13:51.462Z,3.60
2023-03-19T02:14:51.458Z,3.30
2023-03-19T02:15:51.523Z,3.60
2023-03-19T02:16:51.498Z,3.40
2023-03-19T02:17:51.518Z,3.50
2023-03-19T02:18:51.531Z,3.60
2023-03-19T02:19:51.544Z,3.50
2023-03-19T02:20:51.558Z,3.50
2023-03-19T02:21:51.576Z,3.50
2023-03-19T02:22:51.590Z,3.50
2023-03-19T02:23:51.629Z,3.40
2023-03-19T02:24:51.628Z,3.40
2023-03-19T02:25:51.645Z,3.40
2023-03-19T02:26:51.680Z,3.20
2023-03-19T02:27:51.671Z,3.60
2023-03-19T02:28:51.696Z,3.50
2023-03-19T02:29:51.712Z,3.00
2023-03-19T02:30:51.725Z,3.60
2023-03-19T02:31:51.738Z,3.00
2023-03-19T02:32:51.782Z,3.20
2023-03-19T02:33:51.775Z,3.20
2023-03-19T02:34:51.792Z,3.40
2023-03-19T02:35:52.037Z,3.20
2023-03-19T02:36:51.828Z,3.20
2023-03-19T02:37:51.833Z,3.20
2023-03-19T02:38:51.849Z,3.40
2023-03-19T02:39:51.887Z,3.50
2023-03-19T02:40:51.884Z,3.40
2023-03-19T02:41:51.899Z,3.30
2023-03-19T02:42:51.913Z,2.90
2023-03-19T02:43:51.930Z,3.10
2023-03-19T02:44:51.956Z,3.00
2023-03-19T02:45:51.984Z,3.10
2023-03-19T02:46:52.029Z,3.10
2023-03-19T02:47:51.994Z,3.40
2023-03-19T02:48:52.024Z,3.30
2023-03-19T02:49:52.029Z,3.20
2023-03-19T02:50:52.051Z,3.10
2023-03-19T02:51:52.086Z,3.10
2023-03-19T02:52:52.081Z,3.30
2023-03-19T02:53:52.107Z,3.00
2023-03-19T02:54:52.107Z,3.10
2023-03-19T02:55:52.149Z,3.20
2023-03-19T02:56:52.146Z,3.20
2023-03-19T02:57:52.180Z,3.10
2023-03-19T02:58:52.172Z,3.10
2023-03-19T02:59:52.195Z,3.40
2023-03-19T03:00:52.270Z,3.10
2023-03-19T03:01:52.317Z,2.90
2023-03-19T03:02:52.249Z,3.20
2023-03-19T03:03:52.257Z,3.00
2023-03-19T03:04:52.285Z,3.00
2023-03-19T03:05:52.294Z,3.50
2023-03-19T03:06:52.313Z,3.20
2023-03-19T03:07:52.326Z,3.20
2023-03-19T03:08:52.353Z,2.90
2023-03-19T03:09:52.372Z,3.40
2023-03-19T03:10:52.375Z,3.30
2023-03-19T03:11:52.420Z,3.20
2023-03-19T03:12:52.413Z,3.30
2023-03-19T03:13:52.438Z,3.20
2023-03-19T03:14:52.442Z,3.00
2023-03-19T03:15:52.479Z,3.20
2023-03-19T03:16:52.482Z,2.90
2023-03-19T03:17:52.495Z,3.10
2023-03-19T03:18:52.505Z,2.90
2023-03-19T03:19:52.522Z,3.10
2023-03-19T03:20:52.539Z,3.50
2023-03-19T03:21:52.565Z,3.10
2023-03-19T03:22:52.572Z,3.20
2023-03-19T03:23:52.586Z,2.90
2023-03-19T03:24:52.611Z,3.10
2023-03-19T03:25:52.648Z,3.20
2023-03-19T03:26:52.641Z,2.90
2023-03-19T03:27:52.674Z,2.80
2023-03-19T03:28:52.670Z,3.20
2023-03-19T03:29:52.693Z,3.10
2023-03-19T03:30:52.701Z,3.10
2023-03-19T03:31:52.848Z,3.10
2023-03-19T03:32:52.787Z,2.80
2023-03-19T03:33:52.752Z,3.00
2023-03-19T03:34:52.766Z,3.00
2023-03-19T03:35:52.824Z,3.00
2023-03-19T03:36:52.808Z,2.80
2023-03-19T03:37:52.816Z,3.20
2023-03-19T03:38:52.833Z,3.10
2023-03-19T03:39:52.848Z,2.90
2023-03-19T03:40:52.864Z,2.90
2023-03-19T03:41:52.895Z,3.20
2023-03-19T03:42:52.904Z,3.00
2023-03-19T03:43:53.002Z,3.00
2023-03-19T03:44:52.931Z,3.00
2023-03-19T03:45:53.087Z,3.10
2023-03-19T03:46:52.969Z,3.00
2023-03-19T03:47:52.996Z,2.70
2023-03-19T03:48:52.998Z,2.80
2023-03-19T03:49:53.021Z,2.90
2023-03-19T03:50:53.027Z,2.90
2023-03-19T03:51:53.049Z,2.80
2023-03-19T03:52:53.066Z,3.00
2023-03-19T03:53:53.083Z,3.00
2023-03-19T03:54:53.095Z,3.10
2023-03-19T03:55:53.110Z,2.90
2023-03-19T03:56:53.125Z,3.00
2023-03-19T03:57:53.155Z,2.90
2023-03-19T03:58:53.158Z,3.10
2023-03-19T03:59:53.191Z,2.90
2023-03-19T04:00:53.191Z,2.80
2023-03-19T04:01:53.230Z,3.00
2023-03-19T04:02:53.287Z,3.00
2023-03-19T04:03:53.239Z,2.90
2023-03-19T04:04:53.259Z,2.80
2023-03-19T04:05:53.284Z,2.80
2023-03-19T04:06:53.288Z,2.80
2023-03-19T04:07:53.310Z,2.80
2023-03-19T04:08:53.325Z,2.80
2023-03-19T04:09:53.337Z,3.00
2023-03-19T04:10:53.353Z,2.60
2023-03-19T04:11:53.376Z,2.80
2023-03-19T04:12:53.384Z,2.80
2023-03-19T04:13:53.411Z,2.70
2023-03-19T04:14:53.419Z,2.60
2023-03-19T04:15:53.453Z,2.80
2023-03-19T04:16:53.619Z,2.90
2023-03-19T04:17:53.464Z,2.70
2023-03-19T04:18:53.488Z,2.80
2023-03-19T04:19:53.502Z,3.00
2023-03-19T04:20:53.528Z,2.70
2023-03-19T04:21:53.530Z,3.00
2023-03-19T04:22:53.552Z,2.70
2023-03-19T04:23:53.561Z,2.90
2023-03-19T04:24:53.580Z,2.70
2023-03-19T04:25:53.606Z,2.70
2023-03-19T04:26:53.623Z,2.60
2023-03-19T04:27:53.634Z,3.10
2023-03-19T04:28:53.642Z,3.00
2023-03-19T04:29:53.666Z,2.60
2023-03-19T04:30:53.728Z,2.80
2023-03-19T04:31:53.714Z,2.70
2023-03-19T04:32:53.737Z,2.70
2023-03-19T04:33:53.730Z,2.70
2023-03-19T04:34:53.748Z,2.70
2023-03-19T04:35:53.803Z,2.60
2023-03-19T04:36:53.793Z,2.80
2023-03-19T04:37:53.787Z,2.60
2023-03-19T04:38:53.808Z,2.70
2023-03-19T04:39:53.827Z,2.60
2023-03-19T04:40:53.836Z,3.10
2023-03-19T04:41:53.853Z,2.90
2023-03-19T04:42:53.871Z,2.70
2023-03-19T04:43:53.898Z,2.60
2023-03-19T04:44:53.899Z,2.80
2023-03-19T04:45:53.974Z,2.90
2023-03-19T04:46:53.943Z,2.80
2023-03-19T04:47:53.985Z,2.60
2023-03-19T04:48:53.972Z,2.60
2023-03-19T04:49:53.988Z,2.70
2023-03-19T04:50:54.001Z,3.60
2023-03-19T04:51:54.015Z,2.70
2023-03-19T04:52:54.028Z,2.80
2023-03-19T04:53:54.044Z,2.70
2023-03-19T04:54:54.067Z,2.80
2023-03-19T04:55:54.076Z,2.80
2023-03-19T04:56:54.095Z,2.70
2023-03-19T04:57:54.123Z,2.70
2023-03-19T04:58:54.125Z,2.70
2023-03-19T04:59:54.141Z,2.80
2023-03-19T05:00:54.168Z,2.60
2023-03-19T05:01:54.179Z,2.50
2023-03-19T05:02:54.191Z,2.50
2023-03-19T05:03:54.261Z,2.70
2023-03-19T05:04:54.224Z,2.90
2023-03-19T05:05:54.241Z,2.60
2023-03-19T05:06:54.256Z,2.60
2023-03-19T05:07:54.282Z,2.60
2023-03-19T05:08:54.296Z,2.50
2023-03-19T05:09:54.308Z,2.70
2023-03-19T05:10:54.324Z,3.00
2023-03-19T05:11:54.341Z,2.50
2023-03-19T05:12:54.353Z,2.40
2023-03-19T05:13:54.374Z,2.60
2023-03-19T05:14:54.389Z,2.70
2023-03-19T05:15:54.420Z,2.60
2023-03-19T05:16:54.435Z,2.60
2023-03-19T05:17:54.430Z,2.40
2023-03-19T05:18:54.453Z,2.60
2023-03-19T05:19:54.489Z,2.50
2023-03-19T05:20:54.478Z,2.60
2023-03-19T05:21:54.502Z,2.70
2023-03-19T05:22:54.517Z,2.50
2023-03-19T05:23:54.537Z,2.70
2023-03-19T05:24:54.550Z,2.50
2023-03-19T05:25:54.560Z,2.50
2023-03-19T05:26:54.582Z,2.50
2023-03-19T05:27:54.599Z,2.40
2023-03-19T05:28:54.616Z,2.50
2023-03-19T05:29:54.633Z,2.40
2023-03-19T05:30:54.683Z,2.50
2023-03-19T05:31:54.654Z,2.70
2023-03-19T05:32:54.707Z,2.50
2023-03-19T05:33:54.697Z,2.70
2023-03-19T05:34:54.714Z,2.50
2023-03-19T05:35:56.400Z,2.50
2023-03-19T05:36:54.738Z,2.70
2023-03-19T05:37:54.765Z,2.60
2023-03-19T05:38:54.781Z,2.50
2023-03-19T05:39:54.821Z,2.60
2023-03-19T05:40:54.819Z,2.80
2023-03-19T05:41:54.822Z,2.60
2023-03-19T05:42:54.833Z,2.80
2023-03-19T05:43:54.856Z,2.70
2023-03-19T05:44:54.873Z,2.30
2023-03-19T05:45:54.908Z,2.80
2023-03-19T05:46:54.900Z,2.50
2023-03-19T05:47:54.929Z,2.40
2023-03-19T05:48:54.928Z,2.30
2023-03-19T05:49:54.944Z,2.60
2023-03-19T05:50:54.963Z,2.50
2023-03-19T05:51:54.993Z,2.50
2023-03-19T05:52:54.998Z,2.50
2023-03-19T05:53:55.020Z,2.50
2023-03-19T05:54:55.022Z,2.50
2023-03-19T05:55:55.045Z,2.40
2023-03-19T05:56:55.063Z,2.40
2023-03-19T05:57:55.078Z,2.50
2023-03-19T05:58:55.083Z,2.70
2023-03-19T05:59:55.114Z,2.80
2023-03-19T06:00:55.123Z,2.70
2023-03-19T06:01:55.133Z,2.40
2023-03-19T06:02:55.262Z,2.70
2023-03-19T06:03:55.227Z,2.20
2023-03-19T06:04:55.189Z,2.30
2023-03-19T06:05:55.205Z,2.40
2023-03-19T06:06:55.225Z,2.50
2023-03-19T06:07:55.253Z,2.40
2023-03-19T06:08:55.252Z,2.50
2023-03-19T06:09:55.272Z,2.40
2023-03-19T06:10:55.284Z,2.40
2023-03-19T06:11:55.293Z,2.30
2023-03-19T06:12:55.321Z,2.50
2023-03-19T06:13:55.332Z,2.50
2023-03-19T06:14:55.338Z,2.30
2023-03-19T06:15:55.473Z,2.50
2023-03-19T06:16:55.380Z,2.10
2023-03-19T06:17:55.404Z,2.40
2023-03-19T06:18:55.413Z,2.50
2023-03-19T06:19:55.445Z,2.30
2023-03-19T06:20:55.441Z,2.50
2023-03-19T06:21:55.453Z,2.50
2023-03-19T06:22:55.474Z,2.40
2023-03-19T06:23:55.658Z,2.40
2023-03-19T06:24:55.499Z,2.30
2023-03-19T06:25:55.516Z,2.40
2023-03-19T06:26:55.542Z,2.70
2023-03-19T06:27:55.548Z,2.50
2023-03-19T06:28:55.570Z,2.50
2023-03-19T06:29:55.598Z,3.00
2023-03-19T06:30:55.600Z,2.50
2023-03-19T06:31:57.993Z,2.40
2023-03-19T06:32:55.691Z,2.10
2023-03-19T06:33:55.656Z,2.50
2023-03-19T06:34:55.661Z,2.20
2023-03-19T06:35:55.720Z,2.40
2023-03-19T06:36:55.705Z,2.60
2023-03-19T06:37:55.723Z,2.40
2023-03-19T06:38:55.726Z,2.50
2023-03-19T06:39:55.778Z,2.30
2023-03-19T06:40:55.772Z,2.50
2023-03-19T06:41:55.841Z,2.30
2023-03-19T06:42:55.791Z,2.70
2023-03-19T06:43:55.818Z,2.70
2023-03-19T06:44:55.830Z,2.30
2023-03-19T06:45:55.942Z,2.20
2023-03-19T06:46:55.862Z,2.40
2023-03-19T06:47:55.878Z,2.40
2023-03-19T06:48:55.888Z,3.00
2023-03-19T06:49:55.905Z,2.30
2023-03-19T06:50:55.926Z,2.50
2023-03-19T06:51:55.943Z,2.40
2023-03-19T06:52:55.966Z,2.40
2023-03-19T06:53:55.989Z,2.30
2023-03-19T06:54:56.001Z,2.80
2023-03-19T06:55:56.023Z,2.40
2023-03-19T06:56:56.017Z,2.40
2023-03-19T06:57:56.042Z,2.40
2023-03-19T06:58:56.048Z,2.30
2023-03-19T06:59:56.069Z,2.80
2023-03-19T07:00:56.153Z,2.10
2023-03-19T07:01:56.097Z,2.40
2023-03-19T07:02:56.112Z,2.60
2023-03-19T07:03:56.180Z,2.70
2023-03-19T07:04:56.148Z,2.50
2023-03-19T07:05:56.161Z,2.50
2023-03-19T07:06:56.181Z,2.40
2023-03-19T07:07:56.189Z,2.20
2023-03-19T07:08:56.219Z,2.80
2023-03-19T07:09:56.230Z,2.80
2023-03-19T07:10:56.236Z,2.90
2023-03-19T07:11:56.273Z,2.50
2023-03-19T07:12:56.277Z,2.90
2023-03-19T07:13:56.290Z,2.50
2023-03-19T07:14:56.327Z,2.40
2023-03-19T07:15:56.328Z,2.30
2023-03-19T07:16:56.343Z,2.50
2023-03-19T07:17:56.347Z,2.50
2023-03-19T07:18:56.369Z,2.50
2023-03-19T07:19:56.394Z,2.10
2023-03-19T07:20:56.405Z,2.50
2023-03-19T07:21:56.415Z,3.70
2023-03-19T07:22:56.431Z,2.40
2023-03-19T07:23:56.449Z,2.50
2023-03-19T07:24:56.466Z,2.30
2023-03-19T07:25:56.475Z,3.20
2023-03-19T07:26:56.490Z,2.50
2023-03-19T07:27:56.531Z,2.30
2023-03-19T07:28:56.536Z,2.50
2023-03-19T07:29:56.545Z,2.40
2023-03-19T07:30:56.561Z,2.30
2023-03-19T07:31:56.580Z,2.70
2023-03-19T07:32:56.684Z,3.00
2023-03-19T07:33:56.607Z,2.20
2023-03-19T07:34:56.626Z,2.40
2023-03-19T07:35:56.689Z,2.20
2023-03-19T07:36:56.719Z,2.30
2023-03-19T07:37:56.665Z,2.30
2023-03-19T07:38:56.687Z,2.30
2023-03-19T07:39:56.702Z,2.60
2023-03-19T07:41:02.520Z,2.30
2023-03-19T07:41:56.777Z,2.80
2023-03-19T07:42:56.753Z,2.50
2023-03-19T07:43:56.811Z,2.80
2023-03-19T07:44:56.780Z,2.20
2023-03-19T07:45:56.864Z,2.40
2023-03-19T07:46:56.825Z,2.30
2023-03-19T07:47:56.822Z,2.80
2023-03-19T07:48:56.856Z,2.90
2023-03-19T07:49:56.880Z,2.70
2023-03-19T07:50:56.885Z,2.50
2023-03-19T07:51:56.893Z,2.50
2023-03-19T07:52:56.909Z,2.50
2023-03-19T07:53:56.930Z,2.40
2023-03-19T07:54:56.942Z,2.70
2023-03-19T07:55:56.960Z,3.00
2023-03-19T07:56:56.969Z,2.30
2023-03-19T07:57:56.984Z,2.20
2023-03-19T07:58:57.008Z,2.40
2023-03-19T07:59:57.036Z,2.40
2023-03-19T08:00:57.027Z,2.40
2023-03-19T08:01:57.117Z,2.30
2023-03-19T08:02:57.066Z,2.60
2023-03-19T08:03:57.083Z,2.30
2023-03-19T08:04:57.104Z,2.30
2023-03-19T08:05:57.123Z,3.40
2023-03-19T08:06:57.121Z,2.40
2023-03-19T08:07:57.133Z,2.70
2023-03-19T08:08:57.155Z,2.80
2023-03-19T08:09:57.168Z,2.30
2023-03-19T08:10:57.416Z,2.60
2023-03-19T08:11:57.209Z,2.40
2023-03-19T08:12:57.222Z,2.30
2023-03-19T08:13:57.233Z,2.60
2023-03-19T08:14:57.248Z,2.50
2023-03-19T08:15:57.286Z,2.30
2023-03-19T08:16:57.322Z,2.40
2023-03-19T08:17:57.294Z,2.40
2023-03-19T08:18:57.322Z,2.40
2023-03-19T08:19:57.331Z,2.30
2023-03-19T08:20:57.341Z,2.40
2023-03-19T08:21:57.362Z,2.50
2023-03-19T08:22:57.381Z,2.70
2023-03-19T08:23:57.550Z,2.50
2023-03-19T08:24:57.416Z,2.40
2023-03-19T08:25:57.450Z,2.30
2023-03-19T08:26:57.443Z,2.30
2023-03-19T08:27:57.454Z,2.40
2023-03-19T08:28:57.607Z,2.40
2023-03-19T08:29:57.489Z,2.30
2023-03-19T08:30:57.523Z,2.30
2023-03-19T08:31:57.537Z,2.30
2023-03-19T08:32:57.539Z,2.30
2023-03-19T08:33:57.554Z,2.30
2023-03-19T08:34:57.573Z,2.40
2023-03-19T08:35:57.611Z,2.40
2023-03-19T08:36:57.600Z,2.70
2023-03-19T08:37:57.618Z,2.90
2023-03-19T08:38:57.642Z,2.40
2023-03-19T08:39:57.670Z,2.40
2023-03-19T08:40:57.656Z,2.20
2023-03-19T08:41:57.692Z,2.50
2023-03-19T08:42:57.687Z,2.50
2023-03-19T08:43:57.702Z,2.40
2023-03-19T08:44:57.720Z,2.70
2023-03-19T08:45:57.811Z,2.40
2023-03-19T08:46:57.762Z,2.70
2023-03-19T08:47:57.796Z,2.40
2023-03-19T08:48:57.805Z,2.50
2023-03-19T08:49:57.808Z,2.90
2023-03-19T08:50:57.966Z,2.30
2023-03-19T08:51:57.836Z,2.50
2023-03-19T08:52:57.869Z,2.30
2023-03-19T08:53:57.870Z,2.80
2023-03-19T08:54:57.877Z,2.60
2023-03-19T08:55:57.898Z,2.40
2023-03-19T08:56:57.915Z,2.50
2023-03-19T08:57:57.932Z,2.80
2023-03-19T08:58:58.052Z,2.80
2023-03-19T08:59:57.979Z,2.70
2023-03-19T09:00:57.969Z,3.20
2023-03-19T09:01:58.028Z,2.60
2023-03-19T09:02:58.010Z,2.60
2023-03-19T09:03:58.043Z,2.80
2023-03-19T09:04:58.097Z,2.30
2023-03-19T09:05:58.058Z,2.80
2023-03-19T09:06:58.073Z,2.60
2023-03-19T09:07:58.087Z,2.50
2023-03-19T09:08:58.097Z,2.70
2023-03-19T09:09:58.116Z,3.10
2023-03-19T09:10:58.247Z,2.70
2023-03-19T09:11:58.154Z,2.50
2023-03-19T09:12:58.191Z,2.50
2023-03-19T09:13:58.188Z,3.30
2023-03-19T09:14:58.198Z,2.50
2023-03-19T09:15:58.253Z,2.50
2023-03-19T09:16:58.223Z,3.50
2023-03-19T09:17:58.248Z,3.20
2023-03-19T09:18:59.472Z,2.70
2023-03-19T09:19:58.297Z,2.90
2023-03-19T09:20:58.303Z,3.10
2023-03-19T09:21:58.312Z,2.80
2023-03-19T09:22:58.328Z,2.70
2023-03-19T09:23:58.333Z,3.30
2023-03-19T09:24:58.352Z,2.60
2023-03-19T09:25:58.365Z,2.50
2023-03-19T09:26:58.388Z,2.60
2023-03-19T09:27:58.407Z,2.60
2023-03-19T09:28:58.413Z,2.60
2023-03-19T09:29:58.439Z,2.50
2023-03-19T09:30:58.555Z,3.30
2023-03-19T09:31:58.468Z,2.70
2023-03-19T09:32:58.573Z,2.50
2023-03-19T09:33:58.497Z,2.60
2023-03-19T09:34:58.516Z,3.20
2023-03-19T09:35:58.598Z,2.70
2023-03-19T09:36:58.545Z,2.60
2023-03-19T09:37:58.558Z,2.50
2023-03-19T09:38:58.574Z,2.50
2023-03-19T09:39:58.592Z,2.60
2023-03-19T09:40:58.608Z,2.60
2023-03-19T09:41:58.619Z,2.90
2023-03-19T09:42:58.642Z,3.10
2023-03-19T09:43:58.664Z,2.40
2023-03-19T09:44:58.666Z,2.70
2023-03-19T09:45:58.682Z,3.00
2023-03-19T09:46:58.845Z,2.60
2023-03-19T09:47:58.710Z,2.80
2023-03-19T09:48:58.733Z,3.20
2023-03-19T09:49:58.746Z,2.70
2023-03-19T09:50:58.764Z,3.00
2023-03-19T09:51:58.801Z,2.40
2023-03-19T09:52:58.797Z,2.60
2023-03-19T09:53:58.817Z,3.40
2023-03-19T09:54:58.829Z,2.90
2023-03-19T09:55:58.840Z,2.80
2023-03-19T09:56:58.869Z,2.70
2023-03-19T09:57:58.931Z,2.90
2023-03-19T09:58:58.896Z,3.10
2023-03-19T09:59:58.907Z,2.80
2023-03-19T10:00:58.924Z,2.80
2023-03-19T10:01:58.999Z,2.60
2023-03-19T10:02:58.954Z,2.90
2023-03-19T10:03:59.025Z,2.70
2023-03-19T10:04:58.990Z,2.70
2023-03-19T10:05:59.009Z,3.00
2023-03-19T10:06:59.010Z,2.60
2023-03-19T10:07:59.059Z,2.80
2023-03-19T10:08:59.045Z,2.70
2023-03-19T10:09:59.076Z,2.80
2023-03-19T10:10:59.081Z,2.50
2023-03-19T10:11:59.090Z,2.50
2023-03-19T10:12:59.114Z,3.20
2023-03-19T10:13:59.134Z,2.60
2023-03-19T10:14:59.144Z,3.00
2023-03-19T10:15:59.235Z,4.00
2023-03-19T10:16:59.173Z,2.80
2023-03-19T10:17:59.195Z,2.80
2023-03-19T10:18:59.572Z,2.80
2023-03-19T10:19:59.216Z,3.20
2023-03-19T10:20:59.240Z,4.20
2023-03-19T10:21:59.246Z,3.20
2023-03-19T10:22:59.262Z,2.70
2023-03-19T10:23:59.302Z,4.10
2023-03-19T10:24:59.301Z,3.00
2023-03-19T10:25:59.313Z,2.90
2023-03-19T10:26:59.341Z,2.80
2023-03-19T10:27:59.352Z,2.80
2023-03-19T10:28:59.386Z,3.30
2023-03-19T10:29:59.394Z,2.80
2023-03-19T10:31:02.136Z,3.40
2023-03-19T10:31:59.626Z,3.50
2023-03-19T10:32:59.714Z,3.40
2023-03-19T10:33:59.439Z,2.90
2023-03-19T10:34:59.451Z,2.90
2023-03-19T10:35:59.511Z,2.70
2023-03-19T10:36:59.486Z,2.90
2023-03-19T10:37:59.504Z,2.70
2023-03-19T10:38:59.516Z,3.50
2023-03-19T10:39:59.589Z,2.80
2023-03-19T10:40:59.554Z,3.30
2023-03-19T10:41:59.565Z,2.80
2023-03-19T10:42:59.579Z,2.90
2023-03-19T10:43:59.596Z,2.90
2023-03-19T10:44:59.616Z,2.80
2023-03-19T10:45:59.723Z,3.10
2023-03-19T10:46:59.649Z,2.90
2023-03-19T10:47:59.659Z,2.90
2023-03-19T10:48:59.695Z,2.90
2023-03-19T10:49:59.690Z,3.10
2023-03-19T10:50:59.720Z,2.80
2023-03-19T10:51:59.727Z,2.90
2023-03-19T10:52:59.737Z,2.80
2023-03-19T10:53:59.754Z,2.80
2023-03-19T10:54:59.775Z,3.30
2023-03-19T10:55:59.818Z,3.00
2023-03-19T10:56:59.803Z,2.80
2023-03-19T10:57:59.816Z,2.80
2023-03-19T10:58:59.844Z,3.10
2023-03-19T11:00:01.948Z,3.00
2023-03-19T11:00:59.899Z,3.20
2023-03-19T11:01:59.880Z,2.80
2023-03-19T11:02:59.900Z,2.80
2023-03-19T11:04:00.053Z,2.90
2023-03-19T11:04:59.924Z,2.90
2023-03-19T11:05:59.938Z,3.40
2023-03-19T11:06:59.960Z,2.60
2023-03-19T11:07:59.981Z,2.90
2023-03-19T11:08:59.994Z,2.90
2023-03-19T11:10:00.001Z,3.00
2023-03-19T11:11:00.030Z,2.90
2023-03-19T11:12:00.087Z,3.00
2023-03-19T11:13:00.059Z,2.90
2023-03-19T11:14:00.074Z,2.90
2023-03-19T11:15:00.090Z,3.00
2023-03-19T11:16:00.106Z,2.80
2023-03-19T11:17:01.789Z,2.90
2023-03-19T11:18:00.124Z,2.70
2023-03-19T11:19:00.153Z,2.60
2023-03-19T11:20:00.184Z,2.80
2023-03-19T11:21:00.178Z,2.90
2023-03-19T11:22:00.194Z,3.00
2023-03-19T11:23:00.202Z,2.60
2023-03-19T11:24:00.220Z,2.80
2023-03-19T11:25:00.234Z,2.90
2023-03-19T11:26:00.260Z,3.40
2023-03-19T11:27:00.265Z,3.10
2023-03-19T11:28:00.653Z,2.60
2023-03-19T11:29:00.298Z,2.90
2023-03-19T11:30:00.320Z,3.20
2023-03-19T11:31:00.336Z,2.70
2023-03-19T11:32:03.980Z,3.20
2023-03-19T11:33:00.420Z,2.70
2023-03-19T11:34:00.386Z,2.70
2023-03-19T11:35:00.395Z,2.80
2023-03-19T11:36:00.431Z,2.70
2023-03-19T11:37:00.430Z,2.90
2023-03-19T11:38:00.441Z,2.70
2023-03-19T11:39:00.454Z,2.60
2023-03-19T11:40:00.480Z,2.90
2023-03-19T11:41:00.500Z,3.40
2023-03-19T11:42:00.510Z,2.50
2023-03-19T11:43:00.532Z,2.80
2023-03-19T11:44:00.572Z,3.10
2023-03-19T11:45:00.564Z,3.00
2023-03-19T11:46:00.606Z,2.80
2023-03-19T11:47:00.585Z,2.80
2023-03-19T11:48:00.622Z,2.70
2023-03-19T11:49:00.625Z,2.80
2023-03-19T11:50:00.631Z,2.90
2023-03-19T11:51:00.663Z,2.80
2023-03-19T11:52:00.675Z,2.80
2023-03-19T11:53:00.689Z,2.70
2023-03-19T11:54:00.695Z,3.10
2023-03-19T11:55:00.731Z,3.20
2023-03-19T11:56:00.726Z,2.90
2023-03-19T11:57:00.749Z,2.70
2023-03-19T11:58:00.761Z,3.00
2023-03-19T11:59:00.771Z,2.70
2023-03-19T12:00:00.807Z,3.00
2023-03-19T12:01:00.838Z,2.80
2023-03-19T12:02:00.838Z,3.10
2023-03-19T12:03:00.840Z,3.00
2023-03-19T12:04:00.944Z,3.00
2023-03-19T12:05:00.874Z,2.80
2023-03-19T12:06:00.884Z,2.90
2023-03-19T12:07:00.938Z,2.80
2023-03-19T12:08:00.916Z,2.90
2023-03-19T12:09:00.938Z,2.90
2023-03-19T12:10:00.959Z,2.90
2023-03-19T12:11:00.967Z,2.80
2023-03-19T12:12:00.978Z,2.90
2023-03-19T12:13:00.997Z,2.90
2023-03-19T12:14:01.020Z,2.70
2023-03-19T12:15:01.055Z,3.30
2023-03-19T12:16:01.102Z,2.80
2023-03-19T12:17:01.064Z,3.10
2023-03-19T12:18:01.080Z,2.70
2023-03-19T12:19:01.113Z,2.80
2023-03-19T12:20:01.151Z,2.70
2023-03-19T12:21:01.118Z,3.20
2023-03-19T12:22:01.150Z,2.80
2023-03-19T12:23:01.164Z,2.70
2023-03-19T12:24:01.175Z,2.80
2023-03-19T12:25:01.234Z,2.70
2023-03-19T12:26:01.201Z,3.00
2023-03-19T12:27:01.223Z,2.70
2023-03-19T12:28:01.237Z,3.30
2023-03-19T12:29:02.835Z,2.80
2023-03-19T12:30:01.273Z,3.10
2023-03-19T12:31:01.333Z,2.90
2023-03-19T12:32:01.333Z,2.80
2023-03-19T12:33:01.350Z,3.20
2023-03-19T12:34:01.325Z,3.10
2023-03-19T12:35:01.342Z,3.00
2023-03-19T12:36:01.399Z,2.90
2023-03-19T12:37:01.370Z,3.20
2023-03-19T12:38:01.394Z,3.10
2023-03-19T12:39:01.411Z,2.80
2023-03-19T12:40:01.418Z,2.80
2023-03-19T12:41:01.437Z,3.10
2023-03-19T12:42:01.458Z,3.10
2023-03-19T12:43:01.472Z,3.10
2023-03-19T12:44:01.483Z,2.90
2023-03-19T12:45:01.552Z,2.80
2023-03-19T12:46:01.603Z,2.80
2023-03-19T12:47:01.589Z,3.50
2023-03-19T12:48:01.563Z,2.80
2023-03-19T12:49:01.568Z,2.90
2023-03-19T12:50:01.580Z,2.70
2023-03-19T12:51:01.600Z,2.90
2023-03-19T12:52:01.615Z,2.80
2023-03-19T12:53:01.635Z,2.80
2023-03-19T12:54:01.646Z,2.90
2023-03-19T12:55:01.658Z,2.90
2023-03-19T12:56:01.673Z,3.30
2023-03-19T12:57:01.699Z,3.00
2023-03-19T12:58:01.735Z,2.70
2023-03-19T12:59:01.718Z,3.00
2023-03-19T13:00:01.740Z,3.10
2023-03-19T13:01:01.756Z,3.20
2023-03-19T13:02:01.959Z,2.90
2023-03-19T13:03:01.786Z,2.80
2023-03-19T13:04:01.828Z,2.70
2023-03-19T13:05:01.852Z,3.10
2023-03-19T13:06:01.848Z,3.00
2023-03-19T13:07:01.873Z,3.10
2023-03-19T13:08:01.873Z,2.80
2023-03-19T13:09:01.879Z,2.90
2023-03-19T13:10:01.915Z,2.90
2023-03-19T13:11:02.756Z,2.70
2023-03-19T13:12:01.932Z,2.90
2023-03-19T13:13:01.951Z,3.40
2023-03-19T13:14:01.968Z,2.80
2023-03-19T13:15:01.999Z,3.10
2023-03-19T13:16:02.131Z,3.40
2023-03-19T13:17:02.010Z,3.60
2023-03-19T13:18:02.028Z,3.10
2023-03-19T13:19:02.046Z,2.90